Time;durP1;ratioP1;P1;durP2;ratioP2;P2;SDS_P1;SDS_P2;PMS_P1;PMS_P2;Temp;Humidity;BMP_temperature;BMP_pressure;BME280_temperature;BME280_humidity;BME280_pressure;Samples;Min_cycle;Max_cycle;Signal;HPM_P1;HPM_P2
2024/04/06 00:00:09;;;;;;;9.35;4.15;;;14.70;96.70;;;;;;5031036;28;20052;-72
2024/04/06 00:02:45;;;;;;;11.60;5.00;;;14.80;96.70;;;;;;5050323;28;20052;-72
2024/04/06 00:05:12;;;;;;;6.88;4.22;;;14.80;96.70;;;;;;5041242;28;20052;-72
2024/04/06 00:07:40;;;;;;;7.53;3.50;;;14.80;96.70;;;;;;5048531;28;20048;-71
2024/04/06 00:10:08;;;;;;;5.50;3.60;;;14.80;96.70;;;;;;5043613;28;20421;-72
2024/04/06 00:12:36;;;;;;;9.75;4.18;;;14.80;96.70;;;;;;5026747;28;20220;-72
2024/04/06 00:15:03;;;;;;;7.20;4.15;;;14.70;96.70;;;;;;5045997;28;20045;-72
2024/04/06 00:17:32;;;;;;;7.53;3.75;;;14.60;96.70;;;;;;5031236;28;20060;-73
2024/04/06 00:20:03;;;;;;;10.32;4.10;;;14.50;96.70;;;;;;5047021;28;20053;-72
2024/04/06 00:22:30;;;;;;;7.47;4.00;;;14.60;96.70;;;;;;5048116;28;20071;-72
2024/04/06 00:24:57;;;;;;;10.25;4.10;;;14.60;96.70;;;;;;5048072;28;20049;-72
2024/04/06 00:27:25;;;;;;;7.35;3.72;;;14.50;96.70;;;;;;5031062;28;20118;-73
2024/04/06 00:29:52;;;;;;;6.22;3.90;;;14.50;96.70;;;;;;5046506;28;20744;-72
2024/04/06 00:32:20;;;;;;;6.78;4.15;;;14.40;96.70;;;;;;5030789;28;20114;-72
2024/04/06 00:34:47;;;;;;;7.20;4.38;;;14.40;96.70;;;;;;5047310;28;20529;-73
2024/04/06 00:37:16;;;;;;;10.23;4.53;;;14.40;96.70;;;;;;5047566;28;20056;-73
2024/04/06 00:39:43;;;;;;;8.15;4.40;;;14.40;96.70;;;;;;5034305;28;20048;-73
2024/04/06 00:42:11;;;;;;;8.68;4.10;;;14.40;96.70;;;;;;5050690;28;20122;-72
2024/04/06 00:44:39;;;;;;;6.63;3.92;;;14.40;96.70;;;;;;5026971;28;20057;-72
2024/04/06 00:47:07;;;;;;;8.60;3.88;;;14.30;96.70;;;;;;5033844;28;20056;-72
2024/04/06 00:49:34;;;;;;;8.18;3.97;;;14.20;96.70;;;;;;5036217;28;20048;-72
2024/04/06 00:52:02;;;;;;;6.05;3.10;;;14.30;96.70;;;;;;5051607;28;20048;-72
2024/04/06 00:54:31;;;;;;;6.35;2.55;;;14.30;96.70;;;;;;5029660;28;20040;-72
2024/04/06 00:56:59;;;;;;;4.53;2.45;;;14.30;96.70;;;;;;5038022;28;20088;-72
2024/04/06 00:59:26;;;;;;;9.60;2.47;;;14.20;96.70;;;;;;5051231;28;20133;-72
2024/04/06 01:01:54;;;;;;;3.53;1.73;;;14.20;96.70;;;;;;5034402;28;20045;-72
2024/04/06 01:04:21;;;;;;;3.70;1.90;;;14.10;96.70;;;;;;5040339;28;20465;-71
2024/04/06 01:06:49;;;;;;;5.30;1.70;;;14.20;96.70;;;;;;5033420;28;20139;-72
2024/04/06 01:09:16;;;;;;;3.65;1.40;;;14.20;96.70;;;;;;5033886;28;20040;-72
2024/04/06 01:11:45;;;;;;;2.72;1.30;;;14.30;96.70;;;;;;5050191;28;20044;-72
2024/04/06 01:14:12;;;;;;;3.20;1.63;;;14.20;96.70;;;;;;5034196;28;20085;-72
2024/04/06 01:16:39;;;;;;;3.47;1.40;;;14.10;96.70;;;;;;5033311;28;20053;-72
2024/04/06 01:19:06;;;;;;;6.40;1.60;;;14.00;96.70;;;;;;5033439;28;20082;-72
2024/04/06 01:21:34;;;;;;;4.63;1.77;;;14.00;96.70;;;;;;5046360;28;20048;-72
2024/04/06 01:24:05;;;;;;;3.15;1.90;;;14.00;96.70;;;;;;5034853;28;20044;-72
2024/04/06 01:26:33;;;;;;;3.08;1.50;;;13.90;96.70;;;;;;5043399;28;20056;-72
2024/04/06 01:29:01;;;;;;;3.60;1.40;;;13.90;96.70;;;;;;5050713;28;20138;-72
2024/04/06 01:31:28;;;;;;;4.13;1.40;;;13.90;96.70;;;;;;5033743;28;20053;-72
2024/04/06 01:33:57;;;;;;;3.15;1.52;;;13.90;96.70;;;;;;5033590;28;20048;-73
2024/04/06 01:36:24;;;;;;;4.18;1.50;;;13.90;96.70;;;;;;5032628;28;20048;-72
2024/04/06 01:38:51;;;;;;;4.65;1.70;;;13.90;96.70;;;;;;5032432;28;20541;-72
2024/04/06 01:41:21;;;;;;;3.03;1.42;;;13.90;96.70;;;;;;5019584;28;20673;-72
2024/04/06 01:43:48;;;;;;;3.10;1.48;;;13.80;96.70;;;;;;5033903;28;20048;-72
2024/04/06 01:46:17;;;;;;;4.28;1.48;;;13.70;96.70;;;;;;5033814;28;20064;-72
2024/04/06 01:48:44;;;;;;;3.90;1.30;;;13.70;96.70;;;;;;5032838;28;20044;-73
2024/04/06 01:51:13;;;;;;;2.75;1.40;;;13.70;96.70;;;;;;5032883;28;20114;-73
2024/04/06 01:53:40;;;;;;;4.88;1.52;;;13.80;96.70;;;;;;5031845;28;20048;-72
2024/04/06 01:56:07;;;;;;;2.97;1.40;;;13.80;96.70;;;;;;5049863;28;20060;-72
2024/04/06 01:58:37;;;;;;;4.57;1.58;;;13.80;96.70;;;;;;5042923;28;20398;-72
2024/04/06 02:01:05;;;;;;;2.42;1.33;;;13.80;96.70;;;;;;5033606;28;20051;-72
2024/04/06 02:03:33;;;;;;;4.10;1.70;;;13.90;96.70;;;;;;5049701;28;20084;-72
2024/04/06 02:06:01;;;;;;;3.75;1.70;;;13.80;96.70;;;;;;5032987;28;20596;-72
2024/04/06 02:08:28;;;;;;;7.05;2.53;;;13.80;96.70;;;;;;5050204;28;20401;-71
2024/04/06 02:10:57;;;;;;;3.60;2.17;;;13.80;96.70;;;;;;5050525;28;20151;-72
2024/04/06 02:13:25;;;;;;;3.97;1.88;;;13.80;96.70;;;;;;5033630;28;20051;-71
2024/04/06 02:15:54;;;;;;;3.33;1.40;;;13.70;96.70;;;;;;5028729;28;20113;-72
2024/04/06 02:18:22;;;;;;;4.90;1.83;;;13.70;96.70;;;;;;5050052;28;20072;-73
2024/04/06 02:20:49;;;;;;;5.20;1.80;;;13.60;96.70;;;;;;5048985;28;20057;-72
2024/04/06 02:23:16;;;;;;;5.30;2.20;;;13.60;96.70;;;;;;5026971;28;20067;-73
2024/04/06 02:25:44;;;;;;;5.18;2.15;;;13.60;96.70;;;;;;5049855;28;20062;-73
2024/04/06 02:28:11;;;;;;;3.35;1.88;;;13.60;96.70;;;;;;5048506;28;20054;-73
2024/04/06 02:30:39;;;;;;;2.88;1.88;;;13.50;96.70;;;;;;5062501;28;20154;-72
2024/04/06 02:33:08;;;;;;;5.45;1.77;;;13.60;96.70;;;;;;5049213;28;20045;-72
2024/04/06 02:35:35;;;;;;;4.55;1.50;;;13.50;96.70;;;;;;5048630;28;20036;-72
2024/04/06 02:38:03;;;;;;;5.05;1.90;;;13.40;96.70;;;;;;5024586;28;20052;-72
2024/04/06 02:40:31;;;;;;;5.00;1.80;;;13.30;96.70;;;;;;5029001;28;20098;-72
2024/04/06 02:42:59;;;;;;;5.00;2.00;;;13.20;96.70;;;;;;5045468;28;20454;-73
2024/04/06 02:45:28;;;;;;;3.75;2.20;;;13.20;96.70;;;;;;5022070;28;20102;-72
2024/04/06 02:47:55;;;;;;;4.47;2.25;;;13.20;96.70;;;;;;5049865;28;20052;-71
2024/04/06 02:50:24;;;;;;;4.93;2.65;;;13.10;96.70;;;;;;5032328;28;20063;-72
2024/04/06 02:52:51;;;;;;;8.80;3.22;;;13.10;96.70;;;;;;5049584;28;20063;-71
2024/04/06 02:55:18;;;;;;;5.90;2.67;;;13.00;96.70;;;;;;5048259;28;20068;-72
2024/04/06 02:57:45;;;;;;;4.70;2.65;;;13.00;96.70;;;;;;5065917;28;20147;-72
2024/04/06 03:00:15;;;;;;;5.68;2.47;;;13.00;96.70;;;;;;5048812;28;20151;-72
2024/04/06 03:02:44;;;;;;;4.30;2.92;;;13.00;96.70;;;;;;5020094;28;20419;-72
2024/04/06 03:05:11;;;;;;;5.00;3.03;;;12.90;96.70;;;;;;5055932;28;20083;-72
2024/04/06 03:07:41;;;;;;;6.00;2.95;;;12.90;96.70;;;;;;5065748;28;20052;-72
2024/04/06 03:10:08;;;;;;;7.25;2.78;;;13.00;96.70;;;;;;5031772;28;20094;-73
2024/04/06 03:12:35;;;;;;;5.85;2.85;;;13.00;96.70;;;;;;5059060;28;20048;-72
2024/04/06 03:15:02;;;;;;;6.45;3.25;;;13.10;96.70;;;;;;5064160;28;20059;-73
2024/04/06 03:17:31;;;;;;;5.57;3.33;;;13.10;96.70;;;;;;5032331;28;20105;-72
2024/04/06 03:19:58;;;;;;;5.70;3.40;;;13.10;96.70;;;;;;5027884;28;20056;-72
2024/04/06 03:22:26;;;;;;;6.47;3.22;;;13.10;96.70;;;;;;5049277;28;20151;-73
2024/04/06 03:24:56;;;;;;;6.90;3.53;;;13.10;96.70;;;;;;5019386;28;20440;-73
2024/04/06 03:27:23;;;;;;;5.60;3.35;;;13.00;96.70;;;;;;5048645;28;20098;-73
2024/04/06 03:29:50;;;;;;;7.35;3.42;;;13.00;96.70;;;;;;5052079;28;20152;-71
2024/04/06 03:32:18;;;;;;;6.95;3.38;;;13.00;96.70;;;;;;5041933;28;20041;-72
2024/04/06 03:34:47;;;;;;;6.40;3.28;;;12.90;96.70;;;;;;5050885;28;20127;-72
2024/04/06 03:37:14;;;;;;;5.88;3.20;;;12.90;96.70;;;;;;5038482;28;20048;-72
2024/04/06 03:39:41;;;;;;;4.72;3.05;;;12.90;96.70;;;;;;5029567;28;20051;-71
2024/04/06 03:42:12;;;;;;;5.35;3.13;;;12.80;96.70;;;;;;5051252;28;20513;-73
2024/04/06 03:44:39;;;;;;;4.07;2.75;;;12.80;96.70;;;;;;5033524;28;20052;-72
2024/04/06 03:47:07;;;;;;;6.18;2.88;;;12.80;96.70;;;;;;5032581;28;20045;-73
2024/04/06 03:49:35;;;;;;;3.60;2.33;;;12.70;96.70;;;;;;5057516;28;20049;-73
2024/04/06 03:52:03;;;;;;;3.22;2.45;;;12.70;96.70;;;;;;5056906;28;20079;-72
2024/04/06 03:54:31;;;;;;;3.92;2.65;;;12.70;96.70;;;;;;5038619;28;20067;-72
2024/04/06 03:56:58;;;;;;;3.28;1.65;;;12.70;96.70;;;;;;5039074;28;20098;-72
2024/04/06 03:59:31;;;;;;;4.70;2.53;;;12.70;96.70;;;;;;5032781;28;20045;-73
2024/04/06 04:01:58;;;;;;;6.57;2.20;;;12.70;96.70;;;;;;5042583;28;20078;-72
2024/04/06 04:04:26;;;;;;;3.33;1.90;;;12.70;96.70;;;;;;5049180;28;20044;-72
2024/04/06 04:06:53;;;;;;;2.67;1.85;;;12.70;96.70;;;;;;5032613;28;20048;-72
2024/04/06 04:09:21;;;;;;;3.63;2.20;;;12.70;96.70;;;;;;5057420;28;20048;-72
2024/04/06 04:11:50;;;;;;;4.70;1.70;;;12.60;96.70;;;;;;5049348;28;20048;-72
2024/04/06 04:14:18;;;;;;;3.03;1.70;;;12.60;96.70;;;;;;5030485;28;20171;-72
2024/04/06 04:16:48;;;;;;;4.88;2.00;;;12.60;96.70;;;;;;5047889;28;20094;-72
2024/04/06 04:19:16;;;;;;;2.58;1.42;;;12.60;96.70;;;;;;5053560;28;20071;-72
2024/04/06 04:21:43;;;;;;;3.50;1.92;;;12.60;96.70;;;;;;5067434;28;20055;-72
2024/04/06 04:24:11;;;;;;;3.75;2.10;;;12.70;96.70;;;;;;5054642;28;20109;-72
2024/04/06 04:26:38;;;;;;;3.80;2.42;;;12.70;96.70;;;;;;5037005;28;20058;-72
2024/04/06 04:29:05;;;;;;;2.92;2.42;;;12.70;96.70;;;;;;5057542;28;20946;-73
2024/04/06 04:31:33;;;;;;;5.72;2.78;;;12.70;96.70;;;;;;5046803;28;20048;-73
2024/04/06 04:34:02;;;;;;;8.85;3.22;;;12.70;96.70;;;;;;5041411;28;20098;-71
2024/04/06 04:36:29;;;;;;;6.68;3.10;;;12.60;96.70;;;;;;5067388;28;20109;-72
2024/04/06 04:38:57;;;;;;;5.68;2.90;;;12.50;96.70;;;;;;5038285;28;20053;-73
2024/04/06 04:41:25;;;;;;;7.00;3.40;;;12.50;96.70;;;;;;5043816;28;20048;-72
2024/04/06 04:43:55;;;;;;;6.47;3.38;;;12.50;96.70;;;;;;5060545;28;20139;-72
2024/04/06 04:46:22;;;;;;;4.25;3.03;;;12.40;96.70;;;;;;5052072;28;20134;-72
2024/04/06 04:48:54;;;;;;;6.80;3.42;;;12.40;96.70;;;;;;5049682;28;20133;-72
2024/04/06 04:51:23;;;;;;;5.40;3.42;;;12.40;96.70;;;;;;5063501;28;20040;-73
2024/04/06 04:53:52;;;;;;;5.20;3.13;;;12.40;96.70;;;;;;5044144;28;20155;-72
2024/04/06 04:56:20;;;;;;;5.82;3.20;;;12.40;96.70;;;;;;5054699;28;20054;-72
2024/04/06 04:58:48;;;;;;;3.95;2.70;;;12.20;96.70;;;;;;5037186;28;20147;-72
2024/04/06 05:01:19;;;;;;;9.23;3.20;;;12.20;96.70;;;;;;5060553;28;20135;-72
2024/04/06 05:03:46;;;;;;;5.00;3.72;;;12.10;96.70;;;;;;5042101;28;20048;-72
2024/04/06 05:06:13;;;;;;;6.10;4.38;;;12.10;96.70;;;;;;5036552;28;20121;-72
2024/04/06 05:08:43;;;;;;;8.88;6.63;;;12.10;96.70;;;;;;5052485;28;20051;-72
2024/04/06 05:11:11;;;;;;;11.82;8.43;;;12.10;96.70;;;;;;5038505;28;20056;-72
2024/04/06 05:13:41;;;;;;;6.90;5.18;;;12.10;96.70;;;;;;5051679;28;20052;-72
2024/04/06 05:16:08;;;;;;;5.78;3.97;;;12.20;96.70;;;;;;5058035;28;20040;-72
2024/04/06 05:18:37;;;;;;;6.57;3.85;;;12.20;96.70;;;;;;5053074;28;20119;-72
2024/04/06 05:21:05;;;;;;;5.57;3.13;;;12.10;96.70;;;;;;5051370;28;20037;-72
2024/04/06 05:23:32;;;;;;;5.47;3.25;;;12.10;96.70;;;;;;5053386;28;21023;-72
2024/04/06 05:26:02;;;;;;;4.75;3.25;;;12.20;96.70;;;;;;5041663;28;20117;-71
2024/04/06 05:28:31;;;;;;;3.88;2.88;;;12.20;96.70;;;;;;5054567;28;20110;-73
2024/04/06 05:30:58;;;;;;;5.43;3.05;;;12.30;96.70;;;;;;5072202;28;20051;-72
2024/04/06 05:33:30;;;;;;;4.10;2.30;;;12.10;96.70;;;;;;5074127;28;20594;-72
2024/04/06 05:35:57;;;;;;;4.38;2.90;;;12.20;96.70;;;;;;5070353;28;20138;-72
2024/04/06 05:38:24;;;;;;;5.07;2.70;;;12.20;96.70;;;;;;5061264;28;20131;-72
2024/04/06 05:40:52;;;;;;;6.28;3.10;;;12.20;96.70;;;;;;5057372;28;20130;-71
2024/04/06 05:43:22;;;;;;;5.57;2.92;;;12.30;96.70;;;;;;5058486;28;20529;-72
2024/04/06 05:46:02;;;;;;;4.68;2.90;;;12.40;96.70;;;;;;5074127;28;20054;-72
2024/04/06 05:48:31;;;;;;;6.57;3.40;;;12.50;96.70;;;;;;5059257;28;20136;-72
2024/04/06 05:50:59;;;;;;;5.63;3.45;;;12.50;96.70;;;;;;5056348;28;20051;-71
2024/04/06 05:53:27;;;;;;;6.57;3.78;;;12.50;96.70;;;;;;5068502;28;20440;-72
2024/04/06 05:55:55;;;;;;;7.90;4.35;;;12.50;96.70;;;;;;5090022;28;20044;-72
2024/04/06 05:58:24;;;;;;;5.05;3.50;;;12.60;96.70;;;;;;5056042;28;20069;-72
2024/04/06 06:00:52;;;;;;;6.03;3.95;;;12.60;96.70;;;;;;5053625;28;20058;-72
2024/04/06 06:03:20;;;;;;;5.43;4.05;;;12.70;96.70;;;;;;5055856;28;20468;-72
2024/04/06 06:05:48;;;;;;;7.05;4.47;;;12.70;96.70;;;;;;5064771;28;20540;-77
2024/04/06 06:08:16;;;;;;;5.68;4.25;;;12.70;96.70;;;;;;5070657;28;20036;-79
2024/04/06 06:10:45;;;;;;;7.38;4.32;;;12.70;96.70;;;;;;5053293;28;20047;-78
2024/04/06 06:13:13;;;;;;;6.63;4.40;;;12.80;96.70;;;;;;5057712;28;20135;-80
2024/04/06 06:15:43;;;;;;;5.07;4.47;;;12.80;96.70;;;;;;5056972;28;20081;-79
2024/04/06 06:18:11;;;;;;;5.40;4.20;;;12.80;96.70;;;;;;5073948;28;20035;-79
2024/04/06 06:20:39;;;;;;;5.57;3.83;;;12.90;96.70;;;;;;5073379;28;20058;-77
2024/04/06 06:23:06;;;;;;;4.85;3.35;;;13.10;96.70;;;;;;5054680;28;20130;-77
2024/04/06 06:25:33;;;;;;;3.45;2.88;;;13.10;96.70;;;;;;5089813;28;20039;-78
2024/04/06 06:28:01;;;;;;;6.95;3.55;;;13.10;96.70;;;;;;5073990;28;20130;-77
2024/04/06 06:30:29;;;;;;;5.15;3.63;;;13.20;96.70;;;;;;5059867;28;20125;-77
2024/04/06 06:33:00;;;;;;;4.22;3.08;;;13.30;96.70;;;;;;5066051;28;20439;-80
2024/04/06 06:35:29;;;;;;;8.88;6.85;;;13.40;96.70;;;;;;5027473;28;20044;-79
2024/04/06 06:37:56;;;;;;;6.63;4.38;;;13.40;96.70;;;;;;5049178;28;20059;-81
2024/04/06 06:40:23;;;;;;;6.82;4.70;;;13.40;96.70;;;;;;5042013;28;20423;-77
2024/04/06 06:42:51;;;;;;;6.90;4.68;;;13.50;96.70;;;;;;5041697;28;20056;-77
2024/04/06 06:45:18;;;;;;;6.13;3.63;;;13.50;96.70;;;;;;5038574;28;20051;-78
2024/04/06 06:47:45;;;;;;;4.05;3.13;;;13.60;96.70;;;;;;5064932;28;20041;-76
2024/04/06 06:50:14;;;;;;;4.90;3.17;;;13.70;96.70;;;;;;5047964;28;20467;-76
2024/04/06 06:52:42;;;;;;;6.85;3.67;;;13.70;96.70;;;;;;5043591;28;20075;-75
2024/04/06 06:55:10;;;;;;;6.07;3.58;;;13.70;96.70;;;;;;5033628;28;20052;-76
2024/04/06 06:57:38;;;;;;;6.03;4.45;;;13.80;96.70;;;;;;5033543;28;20052;-76
2024/04/06 07:00:08;;;;;;;8.90;4.53;;;13.90;96.70;;;;;;5035521;28;20048;-75
2024/04/06 07:02:36;;;;;;;8.52;4.82;;;13.90;96.70;;;;;;5054795;28;20047;-74
2024/04/06 07:05:04;;;;;;;8.60;4.68;;;14.00;96.70;;;;;;5051313;28;20040;-76
2024/04/06 07:07:34;;;;;;;7.35;5.03;;;14.00;96.70;;;;;;5048698;28;20036;-76
2024/04/06 07:10:04;;;;;;;7.65;4.75;;;14.10;96.70;;;;;;5026439;28;20044;-76
2024/04/06 07:12:32;;;;;;;7.18;5.38;;;14.20;96.70;;;;;;5044687;28;20044;-78
2024/04/06 07:14:59;;;;;;;7.20;5.28;;;14.20;96.70;;;;;;5062883;28;20059;-77
2024/04/06 07:17:26;;;;;;;8.52;5.35;;;14.30;96.70;;;;;;5035493;28;20045;-79
2024/04/06 07:19:55;;;;;;;8.73;6.35;;;14.40;96.70;;;;;;5042599;28;20516;-80
2024/04/06 07:22:25;;;;;;;8.18;6.10;;;14.50;96.70;;;;;;5036463;28;20054;-79
2024/04/06 07:24:55;;;;;;;10.07;6.05;;;14.50;96.70;;;;;;5068882;28;21161;-80
2024/04/06 07:27:22;;;;;;;7.32;5.45;;;14.50;96.70;;;;;;5042491;28;20465;-79
2024/04/06 07:29:51;;;;;;;10.60;5.93;;;14.60;96.70;;;;;;5067392;28;20064;-82
2024/04/06 07:32:18;;;;;;;9.45;5.53;;;14.70;96.70;;;;;;5092411;28;20036;-87
2024/04/06 07:34:46;;;;;;;5.80;4.93;;;14.80;96.70;;;;;;5077773;28;20066;-84
2024/04/06 07:37:13;;;;;;;7.22;5.13;;;14.90;96.70;;;;;;5065274;28;20077;-78
2024/04/06 07:39:41;;;;;;;15.18;10.02;;;15.00;96.70;;;;;;5055945;28;20047;-78
2024/04/06 07:42:11;;;;;;;9.50;5.35;;;15.00;96.70;;;;;;5056324;28;20066;-79
2024/04/06 07:44:38;;;;;;;7.32;5.72;;;15.10;96.70;;;;;;5056317;28;20051;-79
2024/04/06 07:47:06;;;;;;;11.43;5.30;;;15.20;96.70;;;;;;5056061;28;20051;-78
2024/04/06 07:49:33;;;;;;;7.90;5.10;;;15.20;96.70;;;;;;5072168;28;20802;-80
2024/04/06 07:52:00;;;;;;;7.05;5.30;;;15.20;96.70;;;;;;5056638;28;20047;-80
2024/04/06 07:54:27;;;;;;;8.32;5.40;;;15.30;96.70;;;;;;5056026;28;20040;-80
2024/04/06 07:56:54;;;;;;;9.25;5.68;;;15.40;96.70;;;;;;5066886;28;20048;-80
2024/04/06 07:59:24;;;;;;;8.05;5.25;;;15.50;96.70;;;;;;5052666;28;20047;-79
2024/04/06 08:01:52;;;;;;;7.78;5.30;;;15.50;96.70;;;;;;5056315;28;20727;-80
2024/04/06 08:04:20;;;;;;;10.48;5.53;;;15.60;96.70;;;;;;5054225;28;20158;-79
2024/04/06 08:06:47;;;;;;;8.57;4.43;;;15.60;96.70;;;;;;5071957;28;20075;-80
2024/04/06 08:09:15;;;;;;;7.95;5.35;;;15.70;96.70;;;;;;5058384;28;20044;-83
2024/04/06 08:11:42;;;;;;;6.97;4.63;;;15.90;96.70;;;;;;5058177;28;20129;-80
2024/04/06 08:14:10;;;;;;;7.80;4.60;;;15.90;96.70;;;;;;5056362;28;20057;-79
2024/04/06 08:16:41;;;;;;;6.53;4.63;;;15.90;96.70;;;;;;5056011;28;20051;-79
2024/04/06 08:19:09;;;;;;;7.82;4.70;;;16.00;96.70;;;;;;5073211;28;20062;-78
2024/04/06 08:21:37;;;;;;;7.53;4.07;;;16.10;96.70;;;;;;5055704;28;20048;-79
2024/04/06 08:24:07;;;;;;;7.38;3.97;;;16.20;96.70;;;;;;5056058;28;20042;-78
2024/04/06 08:26:36;;;;;;;5.32;3.40;;;16.30;96.70;;;;;;5073225;28;20036;-76
2024/04/06 08:29:07;;;;;;;10.68;3.88;;;16.40;96.70;;;;;;5055859;28;20061;-76
2024/04/06 08:31:34;;;;;;;7.05;4.07;;;16.50;96.70;;;;;;5052699;28;20116;-75
2024/04/06 08:34:08;;;;;;;6.68;4.43;;;16.60;96.70;;;;;;5057379;28;20135;-75
2024/04/06 08:36:37;;;;;;;9.02;4.50;;;16.80;96.70;;;;;;5071762;28;20048;-75
2024/04/06 08:39:05;;;;;;;7.70;5.40;;;16.90;96.70;;;;;;5054523;28;20140;-75
2024/04/06 08:41:34;;;;;;;9.07;5.43;;;17.00;96.70;;;;;;5070572;28;20100;-76
2024/04/06 08:44:06;;;;;;;5.97;4.80;;;17.10;96.70;;;;;;5054403;28;20043;-76
2024/04/06 08:46:34;;;;;;;8.65;4.95;;;17.10;96.70;;;;;;5053237;28;20082;-75
2024/04/06 08:49:03;;;;;;;7.93;4.85;;;17.20;96.70;;;;;;5053250;28;20051;-74
2024/04/06 08:51:37;;;;;;;11.07;5.10;;;17.20;96.70;;;;;;5052253;28;20048;-74
2024/04/06 08:54:05;;;;;;;9.32;5.97;;;17.30;96.70;;;;;;5069447;28;20050;-74
2024/04/06 08:56:34;;;;;;;10.20;5.93;;;17.30;96.70;;;;;;5068987;28;20035;-75
2024/04/06 08:59:01;;;;;;;10.95;6.18;;;17.40;96.70;;;;;;5069779;28;20051;-75
2024/04/06 09:01:30;;;;;;;9.23;5.45;;;17.50;96.70;;;;;;5056573;28;20052;-75
2024/04/06 09:03:58;;;;;;;7.20;5.00;;;17.50;96.70;;;;;;5053125;28;20075;-74
2024/04/06 09:06:29;;;;;;;10.27;4.97;;;17.50;96.70;;;;;;5067803;28;20047;-75
2024/04/06 09:09:00;;;;;;;7.88;4.70;;;17.60;96.70;;;;;;5087793;28;20048;-75
2024/04/06 09:11:28;;;;;;;9.55;4.75;;;17.80;96.70;;;;;;5056563;28;20595;-75
2024/04/06 09:14:02;;;;;;;7.50;4.43;;;17.80;96.70;;;;;;5057502;28;20039;-76
2024/04/06 09:16:34;;;;;;;8.73;3.77;;;17.80;96.70;;;;;;5073515;28;20048;-74
2024/04/06 09:19:03;;;;;;;7.45;3.70;;;17.80;96.70;;;;;;5072580;28;20293;-75
2024/04/06 09:21:32;;;;;;;6.57;3.10;;;17.70;96.70;;;;;;5056901;28;20050;-76
2024/04/06 09:24:03;;;;;;;8.93;3.80;;;17.80;96.70;;;;;;5056301;28;20048;-76
2024/04/06 09:26:33;;;;;;;9.50;3.20;;;17.90;96.70;;;;;;5073880;28;20044;-74
2024/04/06 09:29:02;;;;;;;8.10;4.38;;;18.00;96.70;;;;;;5074605;28;20048;-75
2024/04/06 09:31:31;;;;;;;4.93;3.38;;;18.30;96.70;;;;;;5069210;28;20048;-74
2024/04/06 09:34:00;;;;;;;5.43;3.35;;;18.50;96.70;;;;;;5065346;28;20077;-75
2024/04/06 09:36:31;;;;;;;5.85;3.42;;;18.60;96.70;;;;;;5056283;28;20051;-75
2024/04/06 09:39:02;;;;;;;5.57;3.05;;;18.60;96.70;;;;;;5056402;28;20424;-75
2024/04/06 09:41:35;;;;;;;3.42;2.40;;;18.70;96.70;;;;;;5057079;28;20055;-75
2024/04/06 09:44:06;;;;;;;8.38;2.63;;;18.80;96.70;;;;;;5055751;28;20050;-75
2024/04/06 09:46:34;;;;;;;4.20;2.50;;;18.90;96.70;;;;;;5056216;28;20061;-75
2024/04/06 09:49:04;;;;;;;3.92;2.50;;;19.00;96.70;;;;;;5055189;28;20047;-75
2024/04/06 09:51:31;;;;;;;5.25;2.45;;;19.00;96.70;;;;;;5053575;28;20516;-77
2024/04/06 09:54:00;;;;;;;5.75;2.42;;;18.90;96.70;;;;;;5056299;28;20047;-75
2024/04/06 09:56:28;;;;;;;5.72;2.45;;;19.10;96.70;;;;;;5055861;28;20412;-74
2024/04/06 09:58:56;;;;;;;8.13;2.20;;;19.30;96.70;;;;;;5047461;28;20052;-74
2024/04/06 10:01:28;;;;;;;4.68;2.35;;;19.30;96.70;;;;;;5073401;28;20048;-75
2024/04/06 10:03:56;;;;;;;7.90;2.95;;;19.30;96.70;;;;;;5069799;28;20084;-74
2024/04/06 10:06:28;;;;;;;3.95;1.92;;;19.40;96.70;;;;;;5053933;28;20159;-74
2024/04/06 10:09:01;;;;;;;4.13;1.92;;;19.40;96.70;;;;;;5053072;28;20052;-74
2024/04/06 10:11:38;;;;;;;5.90;2.30;;;19.50;96.70;;;;;;5072527;28;20047;-74
2024/04/06 10:14:05;;;;;;;5.53;1.88;;;19.60;96.70;;;;;;5052374;28;20044;-75
2024/04/06 10:16:37;;;;;;;2.50;1.52;;;19.70;96.70;;;;;;5057244;28;20047;-71
2024/04/06 10:19:07;;;;;;;7.28;2.20;;;19.90;96.70;;;;;;5069217;28;20039;-74
2024/04/06 10:21:46;;;;;;;8.00;5.70;;;19.80;96.70;;;;;;5053369;28;20039;-74
2024/04/06 10:24:16;;;;;;;6.38;2.47;;;19.90;96.70;;;;;;5055855;28;20130;-74
2024/04/06 10:26:53;;;;;;;4.03;2.05;;;20.00;96.70;;;;;;5052447;28;20048;-74
2024/04/06 10:29:21;;;;;;;4.93;1.80;;;20.00;96.70;;;;;;5054940;28;20059;-74
2024/04/06 10:31:49;;;;;;;3.47;1.95;;;20.10;96.70;;;;;;5072729;28;20051;-75
2024/04/06 10:34:17;;;;;;;3.95;1.90;;;20.20;96.70;;;;;;5054682;28;20039;-74
2024/04/06 10:36:46;;;;;;;5.07;2.05;;;20.00;96.70;;;;;;5055503;28;20051;-74
2024/04/06 10:39:14;;;;;;;4.65;2.00;;;20.10;96.70;;;;;;5056272;28;20416;-74
2024/04/06 10:41:43;;;;;;;3.33;1.90;;;20.20;96.70;;;;;;5072082;28;20047;-73
2024/04/06 10:44:14;;;;;;;5.07;2.20;;;20.40;96.70;;;;;;5056361;28;20196;-74
2024/04/06 10:46:42;;;;;;;3.10;2.08;;;20.50;96.70;;;;;;5056616;28;20071;-74
2024/04/06 10:49:10;;;;;;;3.35;1.88;;;20.70;96.70;;;;;;5051706;28;20048;-74
2024/04/06 10:51:38;;;;;;;3.88;1.55;;;20.80;96.70;;;;;;5052213;28;20127;-72
2024/04/06 10:54:07;;;;;;;4.85;1.98;;;20.90;96.70;;;;;;5056021;28;20051;-73
2024/04/06 10:56:37;;;;;;;4.63;1.77;;;20.90;96.70;;;;;;5054954;28;20058;-74
2024/04/06 10:59:05;;;;;;;6.18;2.47;;;20.90;96.70;;;;;;5055481;28;20104;-74
2024/04/06 11:01:37;;;;;;;3.97;2.60;;;21.00;96.70;;;;;;5072560;28;20077;-74
2024/04/06 11:04:12;;;;;;;9.90;2.95;;;21.00;96.70;;;;;;5056007;28;20047;-74
2024/04/06 11:06:39;;;;;;;5.97;2.40;;;21.10;96.70;;;;;;5055599;28;20051;-73
2024/04/06 11:09:10;;;;;;;8.43;6.38;;;21.40;96.70;;;;;;5063228;28;20043;-72
2024/04/06 11:11:39;;;;;;;4.53;2.63;;;21.50;96.70;;;;;;5072301;28;20515;-74
2024/04/06 11:14:10;;;;;;;3.95;2.63;;;21.60;96.70;;;;;;5072841;28;20047;-79
2024/04/06 11:16:41;;;;;;;3.47;2.03;;;21.60;96.70;;;;;;5056662;28;20044;-76
2024/04/06 11:19:09;;;;;;;4.50;2.40;;;21.70;96.70;;;;;;5055836;28;20086;-76
2024/04/06 11:21:37;;;;;;;4.38;2.33;;;21.70;96.70;;;;;;5055232;28;20556;-76
2024/04/06 11:24:06;;;;;;;2.22;1.40;;;21.70;96.70;;;;;;5059274;28;20044;-74
2024/04/06 11:26:35;;;;;;;3.90;1.80;;;21.70;96.70;;;;;;5053113;28;20147;-75
2024/04/06 11:29:03;;;;;;;4.47;2.13;;;21.80;96.70;;;;;;5072049;28;20055;-75
2024/04/06 11:31:32;;;;;;;3.72;1.65;;;21.90;96.70;;;;;;5055246;28;20071;-73
2024/04/06 11:34:04;;;;;;;2.88;1.20;;;21.90;96.70;;;;;;5070541;28;20044;-73
2024/04/06 11:36:32;;;;;;;4.72;1.40;;;21.70;96.70;;;;;;5063684;28;20058;-73
2024/04/06 11:38:59;;;;;;;3.10;1.25;;;21.80;96.70;;;;;;5055052;28;20049;-73
2024/04/06 11:41:27;;;;;;;2.45;1.58;;;21.80;96.70;;;;;;5054367;28;20492;-73
2024/04/06 11:43:55;;;;;;;2.88;1.27;;;21.80;96.70;;;;;;5062693;28;20079;-75
2024/04/06 11:46:23;;;;;;;3.85;1.70;;;21.90;96.70;;;;;;5054808;28;20048;-73
2024/04/06 11:48:53;;;;;;;2.15;1.38;;;22.10;96.70;;;;;;5046984;28;20543;-72
2024/04/06 11:51:22;;;;;;;2.20;1.50;;;22.30;96.70;;;;;;5054800;28;20055;-73
2024/04/06 11:53:52;;;;;;;3.67;1.60;;;22.40;96.70;;;;;;5052098;28;20059;-73
2024/04/06 11:56:23;;;;;;;2.30;1.50;;;22.60;96.70;;;;;;5054069;28;20055;-73
2024/04/06 11:58:50;;;;;;;3.00;1.60;;;22.80;96.70;;;;;;5071214;28;20420;-74
2024/04/06 12:01:18;;;;;;;3.22;1.42;;;23.00;96.70;;;;;;5071524;28;20058;-73
2024/04/06 12:03:46;;;;;;;3.88;1.50;;;23.10;96.70;;;;;;5054722;28;20063;-76
2024/04/06 12:06:17;;;;;;;4.72;1.70;;;23.20;96.70;;;;;;5070293;28;20102;-73
2024/04/06 12:08:48;;;;;;;4.80;1.55;;;23.20;96.70;;;;;;5055414;28;20520;-74
2024/04/06 12:11:16;;;;;;;4.07;1.65;;;23.20;96.70;;;;;;5054581;28;20127;-73
2024/04/06 12:13:44;;;;;;;4.15;1.70;;;23.30;96.70;;;;;;5052792;28;20051;-74
2024/04/06 12:16:12;;;;;;;3.25;1.52;;;23.30;96.70;;;;;;5055068;28;20092;-73
2024/04/06 12:18:42;;;;;;;2.03;1.42;;;23.30;96.70;;;;;;5057666;28;20058;-73
2024/04/06 12:21:12;;;;;;;3.55;1.40;;;23.50;96.70;;;;;;5055685;28;20497;-75
2024/04/06 12:23:40;;;;;;;1.85;1.13;;;23.50;96.70;;;;;;5051258;28;20052;-73
2024/04/06 12:26:12;;;;;;;3.15;1.23;;;23.40;96.70;;;;;;5063794;28;20048;-78
2024/04/06 12:28:42;;;;;;;3.40;1.52;;;23.50;96.70;;;;;;5054876;28;20059;-73
2024/04/06 12:31:10;;;;;;;2.88;1.50;;;23.60;96.70;;;;;;5054651;28;20077;-74
2024/04/06 12:33:38;;;;;;;2.40;1.38;;;23.60;96.70;;;;;;5054512;28;20127;-74
2024/04/06 12:36:08;;;;;;;3.72;1.25;;;23.70;96.70;;;;;;5058245;28;20054;-75
2024/04/06 12:38:37;;;;;;;5.82;1.60;;;23.90;96.70;;;;;;5058028;28;20051;-76
2024/04/06 12:41:05;;;;;;;5.93;3.00;;;23.90;96.70;;;;;;5058256;28;20097;-75
2024/04/06 12:43:34;;;;;;;3.67;1.98;;;23.90;96.70;;;;;;5059605;28;20047;-75
2024/04/06 12:46:03;;;;;;;3.78;1.52;;;23.90;96.70;;;;;;5075163;28;20504;-77
2024/04/06 12:48:32;;;;;;;2.22;0.98;;;23.90;96.70;;;;;;5055246;28;20048;-77
2024/04/06 12:51:01;;;;;;;3.13;1.27;;;23.90;96.70;;;;;;5071644;28;20055;-77